Saturday, September 22, 2018, 9:24 AM EDT
Back to Local

KGON, Groton/new London Airport

Location: Groton, CT, United States Lat: 41.333
Local Time: 9:24 AM EDT (13:24 GMT) Lon: -72.05
Time Zone: US/Eastern Elev: 9 ft

Show me the last for .
Show Decoded

2018-09-22 08:56 METAR KGON 221256Z 33012G19KT 10SM CLR 20/14 A3003 RMK AO2 PK WND 32026/1157
                 SLP168 T02000139 =
2018-09-22 07:56 METAR KGON 221156Z 33018G25KT 10SM FEW022 21/16 A3000 RMK AO2 SLP158 60000
                 T02110161 10228 20211 53035 =
2018-09-22 06:56 METAR KGON 221056Z 29005KT 10SM CLR 22/21 A2995 RMK AO2 SLP142 T02220206 =
2018-09-22 06:06 METAR KGON 221006Z AUTO 28011G18KT 10SM SCT014 23/21 A2992 RMK AO2 T02280206 =
2018-09-22 05:56 METAR KGON 220956Z AUTO 27009KT 10SM BKN015 23/21 A2992 RMK AO2 SLP130 T02280206
                 =
2018-09-22 05:18 METAR KGON 220918Z AUTO 25011G19KT 10SM BKN017 OVC025 23/21 A2991 RMK AO2
                 T02280211 =
2018-09-22 04:56 METAR KGON 220856Z AUTO 25010G17KT 10SM BKN012 BKN017 OVC022 22/21 A2990 RMK AO2
                 RAB28E52 SLP124 P0000 60000 T02220211 56015 =
2018-09-22 04:47 METAR KGON 220847Z AUTO 25012G20KT 5SM -RA BR OVC012 22/21 A2990 RMK AO2 RAB28
                 P0000 T02220211 =
2018-09-22 03:56 METAR KGON 220756Z AUTO 23013G21KT 10SM OVC016 23/20 A2990 RMK AO2 SLP125
                 T02280200 =
2018-09-22 02:56 METAR KGON 220656Z AUTO 22016KT 10SM OVC027 22/20 A2991 RMK AO2 SLP128 T02220200
                 =
2018-09-22 02:39 METAR KGON 220639Z AUTO 22016KT 10SM OVC029 22/20 A2992 RMK AO2 T02220200 =
2018-09-22 01:56 METAR KGON 220556Z AUTO 22013KT 10SM OVC032 22/19 A2994 RMK AO2 SLP139 T02220194
                 10222 20211 58021 =
2018-09-22 00:56 METAR KGON 220456Z AUTO 21016KT 10SM OVC039 22/19 A2997 RMK AO2 SLP147 T02220189
                 402220172 =
2018-09-21 23:56 METAR KGON 220356Z AUTO 21016KT 10SM OVC043 22/18 A2999 RMK AO2 SLP156 T02170183
                 =
2018-09-21 22:56 METAR KGON 220256Z AUTO 21019KT 10SM OVC046 22/18 A3000 RMK AO2 SLP160 T02170183
                 56012 =
2018-09-21 21:56 METAR KGON 220156Z 20015KT 10SM OVC044 21/18 A3002 RMK AO2 SLP164 T02110183 =
2018-09-21 20:56 METAR KGON 220056Z 19015KT 10SM OVC048 21/18 A3002 RMK AO2 SLP167 T02110178 =
2018-09-21 19:56 METAR KGON 212356Z 20015KT 10SM OVC046 21/17 A3004 RMK AO2 SLP171 T02110172
                 10211 20200 58023 =
2018-09-21 18:56 METAR KGON 212256Z 19014KT 10SM OVC044 21/17 A3006 RMK AO2 SLP180 T02060167 =
2018-09-21 17:56 METAR KGON 212156Z 19013KT 10SM OVC045 21/16 A3009 RMK AO2 SLP188 T02060161 =
2018-09-21 17:03 METAR KGON 212103Z 19014KT 10SM OVC047 21/16 A3010 RMK AO2 T02060161 =
2018-09-21 16:56 METAR KGON 212056Z 18013KT 10SM BKN021 OVC047 21/16 A3011 RMK AO2 SLP194
                 T02060161 58028 =
2018-09-21 15:56 METAR KGON 211956Z 19015KT 10SM BKN021 OVC047 20/16 A3014 RMK AO2 SLP206
                 T02000156 =
2018-09-21 15:32 METAR KGON 211932Z 17013KT 10SM BKN021 OVC047 20/16 A3015 RMK AO2 T02000161 =
2018-09-21 14:56 METAR KGON 211856Z 18013KT 10SM OVC049 21/16 A3016 RMK AO2 SLP212 T02060156 =
2018-09-21 13:56 METAR KGON 211756Z 18012KT 10SM SCT023 BKN065 21/15 A3019 RMK AO2 SLP223
                 T02060150 10211 20183 56015 =
2018-09-21 12:56 METAR KGON 211656Z 17010KT 10SM SCT023 BKN065 21/15 A3021 RMK AO2 SLP230
                 T02060150 =
2018-09-21 12:53 METAR KGON 211653Z 16011KT 10SM SCT023 BKN065 21/15 A3021 RMK AO2 =
2018-09-21 12:44 METAR KGON 211644Z 17011KT 10SM BKN024 BKN065 21/15 A3021 RMK AO2 T02060150 =
2018-09-21 12:37 METAR KGON 211637Z 16012KT 10SM SCT024 OVC065 21/15 A3021 RMK AO2 T02060150 =
2018-09-21 12:19 METAR KGON 211619Z 15010KT 10SM BKN025 OVC060 20/14 A3022 RMK AO2 T02000144 =
2018-09-21 11:56 METAR KGON 211556Z 14011KT 10SM FEW025 BKN060 20/14 A3023 RMK AO2 SLP237
                 T02000144 =
2018-09-21 11:53 METAR KGON 211553Z 15012KT 10SM FEW025 BKN060 20/14 A3023 RMK AO2 =
2018-09-21 11:06 METAR KGON 211506Z 15010KT 10SM BKN025 20/14 A3026 RMK AO2 T02000139 =
2018-09-21 10:56 METAR KGON 211456Z 15010KT 10SM SCT023 20/14 A3026 RMK AO2 SLP246 T02000139
                 58011 =
2018-09-21 09:56 METAR KGON 211356Z 14010KT 10SM FEW023 OVC060 19/14 A3027 RMK AO2 SLP250
                 T01890139 =
2018-09-21 09:33 METAR KGON 211333Z 13010KT 10SM FEW023 OVC060 18/13 A3028 RMK AO2 T01830133 =

Support USWX by starting your Amazon purchase here.